This is the latest recevied weather packets stored in our database for station/object N2OCK. If no packets are shown the sender has not sent any weather packets the latest 1 day(s).
| Time | Temp. | Humidity | Pressure | Rain* | Wind** | Luminosity | Snow |
|---|---|---|---|---|---|---|---|
| 1778092306 | 14.44° C | 96% | 1008.9 hPa | 0 mm | - | 225 W/m² | - |
| 1778090483 | 14.44° C | 96% | 1009.1 hPa | 1.78 mm | - | 302 W/m² | - |
| 1778089875 | 14.44° C | 96% | 1009.2 hPa | 0 mm | - | 106 W/m² | - |
| 1778088058 | 14.44° C | 96% | 1009.5 hPa | 1.27 mm | - | 192 W/m² | - |
| 1778086842 | 15° C | 93% | 1010 hPa | 0 mm | - | 122 W/m² | - |
| 1778084718 | 15.56° C | 88% | 1010.3 hPa | 0 mm | - | 89 W/m² | - |
| 1778083199 | 15.56° C | 87% | 1010.6 hPa | 0 mm | - | 188 W/m² | - |
| 1778081783 | 16.11° C | 85% | 1010.7 hPa | 0 mm | - | 294 W/m² | - |
| 1778080270 | 16.11° C | 85% | 1010.6 hPa | 0 mm | - | 265 W/m² | - |
| 1778078150 | 16.11° C | 85% | 1010.7 hPa | 0 mm | - | 215 W/m² | - |
| 1778077243 | 16.11° C | 84% | 1010.8 hPa | 0 mm | - | 171 W/m² | - |
| 1778076033 | 16.67° C | 83% | 1010.8 hPa | 0 mm | - | 359 W/m² | - |
| 1778075122 | 16.11° C | 85% | 1011.1 hPa | 0 mm | - | 227 W/m² | - |
| 1778073607 | 15.56° C | 87% | 1010.9 hPa | 0 mm | - | 378 W/m² | - |
| 1778073304 | 15.56° C | 87% | 1010.8 hPa | 0 mm | - | 382 W/m² | - |
| 1778072093 | 15.56° C | 86% | 1010.8 hPa | 0 mm | - | 182 W/m² | - |
| 1778071790 | 16.11° C | 86% | 1010.8 hPa | 0 mm | - | 209 W/m² | - |
| 1778069976 | 15.56° C | 86% | 1011.4 hPa | 0 mm | - | 258 W/m² | - |
| 1778069672 | 15.56° C | 86% | 1011.3 hPa | 0 mm | - | 192 W/m² | - |
| 1778068764 | 16.11° C | 86% | 1011.2 hPa | 0 mm | - | 252 W/m² | - |
| 1778068462 | 15.56° C | 87% | 1011.1 hPa | 0 mm | - | 216 W/m² | - |
| 1778068160 | 15.56° C | 87% | 1011.1 hPa | 0 mm | - | 153 W/m² | - |
| 1778067857 | 15.56° C | 87% | 1011 hPa | 0 mm | - | 96 W/m² | - |
| 1778067556 | 15.56° C | 88% | 1011 hPa | 0 mm | - | 95 W/m² | - |
| 1778066949 | 15° C | 89% | 1011 hPa | 0 mm | - | 154 W/m² | - |
* Rain latest hour (hover to see other rain measurements)
** Current wind speed in m/s (hover to see current wind gust speed)